sensor_id;sensor_type;location;lat;lon;timestamp;temperature;humidity
17813;DHT22;9030;50.792;8.320;2023-04-03T00:00:20;3.30;99.90
17813;DHT22;9030;50.792;8.320;2023-04-03T00:02:46;3.40;99.90
17813;DHT22;9030;50.792;8.320;2023-04-03T00:05:13;3.40;99.90
17813;DHT22;9030;50.792;8.320;2023-04-03T00:07:41;3.30;99.90
17813;DHT22;9030;50.792;8.320;2023-04-03T00:10:09;3.40;99.90
17813;DHT22;9030;50.792;8.320;2023-04-03T00:12:35;3.40;99.90
17813;DHT22;9030;50.792;8.320;2023-04-03T00:15:02;3.40;99.90
17813;DHT22;9030;50.792;8.320;2023-04-03T00:17:29;3.40;99.90
17813;DHT22;9030;50.792;8.320;2023-04-03T00:19:56;3.40;99.90
17813;DHT22;9030;50.792;8.320;2023-04-03T00:22:23;3.40;99.90
17813;DHT22;9030;50.792;8.320;2023-04-03T00:24:53;3.40;99.90
17813;DHT22;9030;50.792;8.320;2023-04-03T00:27:20;3.40;99.90
17813;DHT22;9030;50.792;8.320;2023-04-03T00:29:46;3.40;99.90
17813;DHT22;9030;50.792;8.320;2023-04-03T00:32:13;3.40;99.90
17813;DHT22;9030;50.792;8.320;2023-04-03T00:34:40;3.40;99.90
17813;DHT22;9030;50.792;8.320;2023-04-03T00:37:07;3.30;99.90
17813;DHT22;9030;50.792;8.320;2023-04-03T00:39:34;3.30;99.90
17813;DHT22;9030;50.792;8.320;2023-04-03T00:42:02;3.30;99.90
17813;DHT22;9030;50.792;8.320;2023-04-03T00:47:33;3.30;99.90
17813;DHT22;9030;50.792;8.320;2023-04-03T00:50:00;3.20;99.90
17813;DHT22;9030;50.792;8.320;2023-04-03T00:52:29;3.30;99.90
17813;DHT22;9030;50.792;8.320;2023-04-03T00:54:59;3.30;99.90
17813;DHT22;9030;50.792;8.320;2023-04-03T00:57:29;3.30;99.90
17813;DHT22;9030;50.792;8.320;2023-04-03T01:00:01;3.20;99.90
17813;DHT22;9030;50.792;8.320;2023-04-03T01:02:28;3.20;99.90
17813;DHT22;9030;50.792;8.320;2023-04-03T01:04:55;3.10;99.90
17813;DHT22;9030;50.792;8.320;2023-04-03T01:07:24;3.10;99.90
17813;DHT22;9030;50.792;8.320;2023-04-03T01:09:56;3.00;99.90
17813;DHT22;9030;50.792;8.320;2023-04-03T01:12:25;3.00;99.90
17813;DHT22;9030;50.792;8.320;2023-04-03T01:14:55;2.90;99.90
17813;DHT22;9030;50.792;8.320;2023-04-03T01:17:27;2.90;99.90
17813;DHT22;9030;50.792;8.320;2023-04-03T01:22:50;2.70;99.90
17813;DHT22;9030;50.792;8.320;2023-04-03T01:25:18;2.60;99.90
17813;DHT22;9030;50.792;8.320;2023-04-03T01:27:45;2.50;99.90
17813;DHT22;9030;50.792;8.320;2023-04-03T01:30:14;2.40;99.90
17813;DHT22;9030;50.792;8.320;2023-04-03T01:32:44;2.30;99.90
17813;DHT22;9030;50.792;8.320;2023-04-03T01:35:11;2.20;99.90
17813;DHT22;9030;50.792;8.320;2023-04-03T01:37:38;2.10;99.90
17813;DHT22;9030;50.792;8.320;2023-04-03T01:40:06;2.10;99.90
17813;DHT22;9030;50.792;8.320;2023-04-03T01:42:33;2.00;99.90
17813;DHT22;9030;50.792;8.320;2023-04-03T01:45:00;1.90;99.90
17813;DHT22;9030;50.792;8.320;2023-04-03T01:47:27;1.80;99.90
17813;DHT22;9030;50.792;8.320;2023-04-03T01:49:55;1.70;99.90
17813;DHT22;9030;50.792;8.320;2023-04-03T01:52:21;1.60;99.90
17813;DHT22;9030;50.792;8.320;2023-04-03T01:54:48;1.50;99.90
17813;DHT22;9030;50.792;8.320;2023-04-03T01:57:15;1.40;99.90
17813;DHT22;9030;50.792;8.320;2023-04-03T01:59:42;1.30;99.90
17813;DHT22;9030;50.792;8.320;2023-04-03T02:02:09;1.20;99.90
17813;DHT22;9030;50.792;8.320;2023-04-03T02:04:38;1.10;99.90
17813;DHT22;9030;50.792;8.320;2023-04-03T02:07:06;1.10;99.90
17813;DHT22;9030;50.792;8.320;2023-04-03T02:09:32;0.90;99.90
17813;DHT22;9030;50.792;8.320;2023-04-03T02:11:59;0.80;99.90
17813;DHT22;9030;50.792;8.320;2023-04-03T02:14:26;0.90;99.90
17813;DHT22;9030;50.792;8.320;2023-04-03T02:16:53;0.80;99.90
17813;DHT22;9030;50.792;8.320;2023-04-03T02:19:20;1.10;99.90
17813;DHT22;9030;50.792;8.320;2023-04-03T02:21:46;1.20;99.90
17813;DHT22;9030;50.792;8.320;2023-04-03T02:24:14;1.00;99.90
17813;DHT22;9030;50.792;8.320;2023-04-03T02:26:41;0.80;99.90
17813;DHT22;9030;50.792;8.320;2023-04-03T02:29:08;0.60;99.90
17813;DHT22;9030;50.792;8.320;2023-04-03T02:31:35;0.50;99.90
17813;DHT22;9030;50.792;8.320;2023-04-03T02:34:01;0.40;99.90
17813;DHT22;9030;50.792;8.320;2023-04-03T02:36:28;0.30;99.90
17813;DHT22;9030;50.792;8.320;2023-04-03T02:38:55;0.30;99.90
17813;DHT22;9030;50.792;8.320;2023-04-03T02:41:23;0.20;99.90
17813;DHT22;9030;50.792;8.320;2023-04-03T02:43:51;0.20;99.90
17813;DHT22;9030;50.792;8.320;2023-04-03T02:46:17;0.30;99.90
17813;DHT22;9030;50.792;8.320;2023-04-03T02:48:44;0.30;99.90
17813;DHT22;9030;50.792;8.320;2023-04-03T02:51:11;0.30;99.90
17813;DHT22;9030;50.792;8.320;2023-04-03T02:53:38;0.50;99.90
17813;DHT22;9030;50.792;8.320;2023-04-03T02:56:05;0.40;99.90
17813;DHT22;9030;50.792;8.320;2023-04-03T02:58:33;0.40;99.90
17813;DHT22;9030;50.792;8.320;2023-04-03T03:00:59;0.30;99.90
17813;DHT22;9030;50.792;8.320;2023-04-03T03:03:26;0.50;99.90
17813;DHT22;9030;50.792;8.320;2023-04-03T03:06:01;0.60;99.90
17813;DHT22;9030;50.792;8.320;2023-04-03T03:08:28;0.40;99.90
17813;DHT22;9030;50.792;8.320;2023-04-03T03:10:55;0.50;99.90
17813;DHT22;9030;50.792;8.320;2023-04-03T03:13:21;0.50;99.90
17813;DHT22;9030;50.792;8.320;2023-04-03T03:15:50;0.50;99.90
17813;DHT22;9030;50.792;8.320;2023-04-03T03:18:17;0.40;99.90
17813;DHT22;9030;50.792;8.320;2023-04-03T03:20:43;0.40;99.90
17813;DHT22;9030;50.792;8.320;2023-04-03T03:23:10;0.50;99.90
17813;DHT22;9030;50.792;8.320;2023-04-03T03:25:38;0.40;99.90
17813;DHT22;9030;50.792;8.320;2023-04-03T03:28:05;0.40;99.90
17813;DHT22;9030;50.792;8.320;2023-04-03T03:30:32;0.50;99.90
17813;DHT22;9030;50.792;8.320;2023-04-03T03:33:00;0.60;99.90
17813;DHT22;9030;50.792;8.320;2023-04-03T03:35:27;0.60;99.90
17813;DHT22;9030;50.792;8.320;2023-04-03T03:37:54;0.60;99.90
17813;DHT22;9030;50.792;8.320;2023-04-03T03:40:20;0.60;99.90
17813;DHT22;9030;50.792;8.320;2023-04-03T03:42:47;0.50;99.90
17813;DHT22;9030;50.792;8.320;2023-04-03T03:45:14;0.40;99.90
17813;DHT22;9030;50.792;8.320;2023-04-03T03:47:41;0.50;99.90
17813;DHT22;9030;50.792;8.320;2023-04-03T03:50:10;0.60;99.90
17813;DHT22;9030;50.792;8.320;2023-04-03T03:52:36;0.70;99.90
17813;DHT22;9030;50.792;8.320;2023-04-03T03:55:04;0.60;99.90
17813;DHT22;9030;50.792;8.320;2023-04-03T03:57:32;0.60;99.90
17813;DHT22;9030;50.792;8.320;2023-04-03T03:59:58;0.60;99.90
17813;DHT22;9030;50.792;8.320;2023-04-03T04:02:25;0.50;99.90
17813;DHT22;9030;50.792;8.320;2023-04-03T04:04:52;0.40;99.90
17813;DHT22;9030;50.792;8.320;2023-04-03T04:07:20;0.40;99.90
17813;DHT22;9030;50.792;8.320;2023-04-03T04:09:47;0.40;99.90
17813;DHT22;9030;50.792;8.320;2023-04-03T04:12:13;0.30;99.90
17813;DHT22;9030;50.792;8.320;2023-04-03T04:14:41;0.30;99.90
17813;DHT22;9030;50.792;8.320;2023-04-03T04:17:08;0.40;99.90
17813;DHT22;9030;50.792;8.320;2023-04-03T04:19:34;0.30;99.90
17813;DHT22;9030;50.792;8.320;2023-04-03T04:22:01;0.20;99.90
17813;DHT22;9030;50.792;8.320;2023-04-03T04:24:29;0.10;99.90
17813;DHT22;9030;50.792;8.320;2023-04-03T04:26:56;0.10;99.90
17813;DHT22;9030;50.792;8.320;2023-04-03T04:29:23;0.00;99.90
17813;DHT22;9030;50.792;8.320;2023-04-03T04:31:50;0.00;99.90
17813;DHT22;9030;50.792;8.320;2023-04-03T04:34:16;0.00;99.90
17813;DHT22;9030;50.792;8.320;2023-04-03T04:36:43;-0.10;99.90
17813;DHT22;9030;50.792;8.320;2023-04-03T04:39:10;-0.10;99.90
17813;DHT22;9030;50.792;8.320;2023-04-03T04:41:38;-0.20;99.90
17813;DHT22;9030;50.792;8.320;2023-04-03T04:44:05;-0.10;99.90
17813;DHT22;9030;50.792;8.320;2023-04-03T04:46:32;-0.20;99.90
17813;DHT22;9030;50.792;8.320;2023-04-03T04:48:59;-0.40;99.90
17813;DHT22;9030;50.792;8.320;2023-04-03T04:51:25;-0.50;99.90
17813;DHT22;9030;50.792;8.320;2023-04-03T04:53:52;-0.60;99.90
17813;DHT22;9030;50.792;8.320;2023-04-03T04:56:19;-0.70;99.90
17813;DHT22;9030;50.792;8.320;2023-04-03T04:58:47;-0.70;99.90
17813;DHT22;9030;50.792;8.320;2023-04-03T05:01:14;-0.60;99.90
17813;DHT22;9030;50.792;8.320;2023-04-03T05:03:41;-0.40;99.90
17813;DHT22;9030;50.792;8.320;2023-04-03T05:06:08;-0.40;99.90
17813;DHT22;9030;50.792;8.320;2023-04-03T05:08:35;-0.30;99.90
17813;DHT22;9030;50.792;8.320;2023-04-03T05:11:02;-0.30;99.90
17813;DHT22;9030;50.792;8.320;2023-04-03T05:13:28;-0.40;99.90
17813;DHT22;9030;50.792;8.320;2023-04-03T05:15:56;-0.40;99.90
17813;DHT22;9030;50.792;8.320;2023-04-03T05:18:23;-0.50;99.90
17813;DHT22;9030;50.792;8.320;2023-04-03T05:20:50;-0.60;99.90
17813;DHT22;9030;50.792;8.320;2023-04-03T05:23:17;-0.50;99.90
17813;DHT22;9030;50.792;8.320;2023-04-03T05:25:45;-0.60;99.90
17813;DHT22;9030;50.792;8.320;2023-04-03T05:28:14;-0.60;99.90
17813;DHT22;9030;50.792;8.320;2023-04-03T05:30:41;-0.60;99.90
17813;DHT22;9030;50.792;8.320;2023-04-03T05:33:09;-0.70;99.90
17813;DHT22;9030;50.792;8.320;2023-04-03T05:35:36;-0.70;99.90
17813;DHT22;9030;50.792;8.320;2023-04-03T05:38:04;-0.70;99.90
17813;DHT22;9030;50.792;8.320;2023-04-03T05:40:31;-0.70;99.90
17813;DHT22;9030;50.792;8.320;2023-04-03T05:42:58;-0.70;99.90
17813;DHT22;9030;50.792;8.320;2023-04-03T05:45:24;-0.60;99.90
17813;DHT22;9030;50.792;8.320;2023-04-03T05:47:51;-0.60;99.90
17813;DHT22;9030;50.792;8.320;2023-04-03T05:50:19;-0.60;99.90
17813;DHT22;9030;50.792;8.320;2023-04-03T05:52:49;-0.50;99.90
17813;DHT22;9030;50.792;8.320;2023-04-03T05:55:17;-0.30;99.90
17813;DHT22;9030;50.792;8.320;2023-04-03T05:57:44;-0.10;99.90
17813;DHT22;9030;50.792;8.320;2023-04-03T06:00:13;0.20;99.90
17813;DHT22;9030;50.792;8.320;2023-04-03T06:02:40;0.30;99.90
17813;DHT22;9030;50.792;8.320;2023-04-03T06:05:08;0.50;99.90
17813;DHT22;9030;50.792;8.320;2023-04-03T06:07:38;0.60;99.90
17813;DHT22;9030;50.792;8.320;2023-04-03T06:10:06;0.70;99.90
17813;DHT22;9030;50.792;8.320;2023-04-03T06:12:34;0.80;99.90
17813;DHT22;9030;50.792;8.320;2023-04-03T06:15:01;0.90;99.90
17813;DHT22;9030;50.792;8.320;2023-04-03T06:17:27;0.90;99.90
17813;DHT22;9030;50.792;8.320;2023-04-03T06:19:55;1.00;99.90
17813;DHT22;9030;50.792;8.320;2023-04-03T06:22:23;0.90;99.90
17813;DHT22;9030;50.792;8.320;2023-04-03T06:24:53;0.90;99.90
17813;DHT22;9030;50.792;8.320;2023-04-03T06:27:20;0.80;99.90
17813;DHT22;9030;50.792;8.320;2023-04-03T06:29:47;0.70;99.90
17813;DHT22;9030;50.792;8.320;2023-04-03T06:32:14;0.60;99.90
17813;DHT22;9030;50.792;8.320;2023-04-03T06:34:41;0.70;99.90
17813;DHT22;9030;50.792;8.320;2023-04-03T06:37:10;0.70;99.90
17813;DHT22;9030;50.792;8.320;2023-04-03T06:39:37;0.80;99.90
17813;DHT22;9030;50.792;8.320;2023-04-03T06:42:05;0.80;99.90
17813;DHT22;9030;50.792;8.320;2023-04-03T06:44:32;0.90;99.90
17813;DHT22;9030;50.792;8.320;2023-04-03T06:47:00;0.90;99.90
17813;DHT22;9030;50.792;8.320;2023-04-03T06:49:26;0.80;99.90
17813;DHT22;9030;50.792;8.320;2023-04-03T06:51:54;0.80;99.90
17813;DHT22;9030;50.792;8.320;2023-04-03T06:54:21;0.70;99.90
17813;DHT22;9030;50.792;8.320;2023-04-03T06:56:48;0.70;99.90
17813;DHT22;9030;50.792;8.320;2023-04-03T06:59:17;0.70;99.90
17813;DHT22;9030;50.792;8.320;2023-04-03T07:01:43;1.00;99.90
17813;DHT22;9030;50.792;8.320;2023-04-03T07:04:10;0.90;99.90
17813;DHT22;9030;50.792;8.320;2023-04-03T07:06:37;0.80;99.90
17813;DHT22;9030;50.792;8.320;2023-04-03T07:09:04;0.90;99.90
17813;DHT22;9030;50.792;8.320;2023-04-03T07:11:30;1.00;99.90
17813;DHT22;9030;50.792;8.320;2023-04-03T07:13:57;1.00;99.90
17813;DHT22;9030;50.792;8.320;2023-04-03T07:16:25;1.00;99.90
17813;DHT22;9030;50.792;8.320;2023-04-03T07:18:52;1.00;99.90
17813;DHT22;9030;50.792;8.320;2023-04-03T07:21:19;0.90;99.90
17813;DHT22;9030;50.792;8.320;2023-04-03T07:23:45;0.90;99.90
17813;DHT22;9030;50.792;8.320;2023-04-03T07:26:12;1.00;99.90
17813;DHT22;9030;50.792;8.320;2023-04-03T07:28:39;1.00;99.90
17813;DHT22;9030;50.792;8.320;2023-04-03T07:31:08;0.90;99.90
17813;DHT22;9030;50.792;8.320;2023-04-03T07:33:40;0.90;99.90
17813;DHT22;9030;50.792;8.320;2023-04-03T07:36:08;1.30;99.90
17813;DHT22;9030;50.792;8.320;2023-04-03T07:38:35;1.40;99.90
17813;DHT22;9030;50.792;8.320;2023-04-03T07:41:03;1.70;99.90
17813;DHT22;9030;50.792;8.320;2023-04-03T07:43:30;1.50;99.90
17813;DHT22;9030;50.792;8.320;2023-04-03T07:45:56;1.70;99.90
17813;DHT22;9030;50.792;8.320;2023-04-03T07:48:25;1.90;99.90
17813;DHT22;9030;50.792;8.320;2023-04-03T07:50:53;1.60;99.90
17813;DHT22;9030;50.792;8.320;2023-04-03T07:53:21;1.40;99.90
17813;DHT22;9030;50.792;8.320;2023-04-03T07:55:48;1.50;99.90
17813;DHT22;9030;50.792;8.320;2023-04-03T07:58:17;1.60;99.90
17813;DHT22;9030;50.792;8.320;2023-04-03T08:00:45;1.50;99.90
17813;DHT22;9030;50.792;8.320;2023-04-03T08:03:13;1.50;99.90
17813;DHT22;9030;50.792;8.320;2023-04-03T08:05:43;1.50;99.90
17813;DHT22;9030;50.792;8.320;2023-04-03T08:08:12;1.50;99.90
17813;DHT22;9030;50.792;8.320;2023-04-03T08:10:41;1.30;99.90
17813;DHT22;9030;50.792;8.320;2023-04-03T08:13:09;1.20;99.90
17813;DHT22;9030;50.792;8.320;2023-04-03T08:15:36;1.80;99.90
17813;DHT22;9030;50.792;8.320;2023-04-03T08:18:03;2.30;99.90
17813;DHT22;9030;50.792;8.320;2023-04-03T08:20:30;2.60;99.90
17813;DHT22;9030;50.792;8.320;2023-04-03T08:22:57;2.90;99.90
17813;DHT22;9030;50.792;8.320;2023-04-03T08:25:25;2.70;99.90
17813;DHT22;9030;50.792;8.320;2023-04-03T08:27:52;3.00;99.90
17813;DHT22;9030;50.792;8.320;2023-04-03T08:30:19;3.10;99.90
17813;DHT22;9030;50.792;8.320;2023-04-03T08:32:45;3.40;99.90
17813;DHT22;9030;50.792;8.320;2023-04-03T08:35:12;3.80;99.90
17813;DHT22;9030;50.792;8.320;2023-04-03T08:37:39;3.60;99.90
17813;DHT22;9030;50.792;8.320;2023-04-03T08:40:11;3.60;99.90
17813;DHT22;9030;50.792;8.320;2023-04-03T08:42:48;3.50;99.90
17813;DHT22;9030;50.792;8.320;2023-04-03T08:45:21;3.80;99.90
17813;DHT22;9030;50.792;8.320;2023-04-03T08:47:52;4.00;99.90
17813;DHT22;9030;50.792;8.320;2023-04-03T08:50:26;3.40;99.90
17813;DHT22;9030;50.792;8.320;2023-04-03T08:52:57;3.60;99.90
17813;DHT22;9030;50.792;8.320;2023-04-03T08:55:27;3.30;99.90
17813;DHT22;9030;50.792;8.320;2023-04-03T08:58:00;3.50;99.90
17813;DHT22;9030;50.792;8.320;2023-04-03T09:00:30;4.00;99.90
17813;DHT22;9030;50.792;8.320;2023-04-03T09:02:58;4.40;99.90
17813;DHT22;9030;50.792;8.320;2023-04-03T09:05:35;4.20;99.90
17813;DHT22;9030;50.792;8.320;2023-04-03T09:08:12;4.30;99.90
17813;DHT22;9030;50.792;8.320;2023-04-03T09:10:41;4.00;99.90
17813;DHT22;9030;50.792;8.320;2023-04-03T09:13:17;4.10;99.90
17813;DHT22;9030;50.792;8.320;2023-04-03T09:15:47;4.70;99.90
17813;DHT22;9030;50.792;8.320;2023-04-03T09:18:19;4.70;99.90
17813;DHT22;9030;50.792;8.320;2023-04-03T09:20:56;5.00;99.90
17813;DHT22;9030;50.792;8.320;2023-04-03T09:23:27;4.60;99.90
17813;DHT22;9030;50.792;8.320;2023-04-03T09:26:00;4.80;99.90
17813;DHT22;9030;50.792;8.320;2023-04-03T09:28:32;4.80;99.90
17813;DHT22;9030;50.792;8.320;2023-04-03T09:31:00;4.70;99.90
17813;DHT22;9030;50.792;8.320;2023-04-03T09:33:29;4.80;99.90
17813;DHT22;9030;50.792;8.320;2023-04-03T09:35:56;4.30;99.90
17813;DHT22;9030;50.792;8.320;2023-04-03T09:38:23;4.40;99.90
17813;DHT22;9030;50.792;8.320;2023-04-03T09:41:03;4.90;99.90
17813;DHT22;9030;50.792;8.320;2023-04-03T09:43:33;5.20;99.90
17813;DHT22;9030;50.792;8.320;2023-04-03T09:46:18;5.40;99.90
17813;DHT22;9030;50.792;8.320;2023-04-03T09:48:51;4.70;99.90
17813;DHT22;9030;50.792;8.320;2023-04-03T09:51:18;5.10;99.90
17813;DHT22;9030;50.792;8.320;2023-04-03T09:53:44;5.40;99.90
17813;DHT22;9030;50.792;8.320;2023-04-03T09:56:21;5.20;99.40
17813;DHT22;9030;50.792;8.320;2023-04-03T09:58:51;5.00;99.90
17813;DHT22;9030;50.792;8.320;2023-04-03T10:01:25;5.30;99.90
17813;DHT22;9030;50.792;8.320;2023-04-03T10:04:05;5.50;99.90
17813;DHT22;9030;50.792;8.320;2023-04-03T10:06:33;5.40;99.90
17813;DHT22;9030;50.792;8.320;2023-04-03T10:09:04;5.60;99.50
17813;DHT22;9030;50.792;8.320;2023-04-03T10:11:31;5.80;99.90
17813;DHT22;9030;50.792;8.320;2023-04-03T10:14:00;5.70;99.90
17813;DHT22;9030;50.792;8.320;2023-04-03T10:16:34;6.00;99.90
17813;DHT22;9030;50.792;8.320;2023-04-03T10:19:27;6.20;99.80
17813;DHT22;9030;50.792;8.320;2023-04-03T10:21:59;6.20;99.80
17813;DHT22;9030;50.792;8.320;2023-04-03T10:24:35;5.90;99.90
17813;DHT22;9030;50.792;8.320;2023-04-03T10:27:07;6.50;99.90
17813;DHT22;9030;50.792;8.320;2023-04-03T10:29:40;5.60;99.90
17813;DHT22;9030;50.792;8.320;2023-04-03T10:32:23;5.10;99.90
17813;DHT22;9030;50.792;8.320;2023-04-03T10:34:58;5.80;99.90
17813;DHT22;9030;50.792;8.320;2023-04-03T10:37:29;5.90;98.90
17813;DHT22;9030;50.792;8.320;2023-04-03T10:40:10;6.20;96.30
17813;DHT22;9030;50.792;8.320;2023-04-03T10:42:43;6.10;97.70
17813;DHT22;9030;50.792;8.320;2023-04-03T10:45:23;6.60;95.10
17813;DHT22;9030;50.792;8.320;2023-04-03T10:47:59;6.10;96.50
17813;DHT22;9030;50.792;8.320;2023-04-03T10:50:39;6.10;99.20
17813;DHT22;9030;50.792;8.320;2023-04-03T10:53:17;6.60;97.10
17813;DHT22;9030;50.792;8.320;2023-04-03T10:55:54;6.50;98.70
17813;DHT22;9030;50.792;8.320;2023-04-03T10:58:28;6.40;93.20
17813;DHT22;9030;50.792;8.320;2023-04-03T11:01:01;6.30;95.90
17813;DHT22;9030;50.792;8.320;2023-04-03T11:03:32;6.60;94.20
17813;DHT22;9030;50.792;8.320;2023-04-03T11:06:02;6.50;91.60
17813;DHT22;9030;50.792;8.320;2023-04-03T11:08:36;6.80;93.00
17813;DHT22;9030;50.792;8.320;2023-04-03T11:11:06;7.30;93.30
17813;DHT22;9030;50.792;8.320;2023-04-03T11:13:40;7.80;93.50
17813;DHT22;9030;50.792;8.320;2023-04-03T11:16:13;7.20;91.00
17813;DHT22;9030;50.792;8.320;2023-04-03T11:18:44;6.90;90.70
17813;DHT22;9030;50.792;8.320;2023-04-03T11:21:17;7.10;91.50
17813;DHT22;9030;50.792;8.320;2023-04-03T11:23:47;7.30;91.30
17813;DHT22;9030;50.792;8.320;2023-04-03T11:26:16;6.90;91.10
17813;DHT22;9030;50.792;8.320;2023-04-03T11:28:44;7.00;90.90
17813;DHT22;9030;50.792;8.320;2023-04-03T11:31:20;7.30;93.80
17813;DHT22;9030;50.792;8.320;2023-04-03T11:33:58;7.70;91.10
17813;DHT22;9030;50.792;8.320;2023-04-03T11:36:31;7.70;89.50
17813;DHT22;9030;50.792;8.320;2023-04-03T11:39:01;7.60;92.60
17813;DHT22;9030;50.792;8.320;2023-04-03T11:41:31;7.30;91.20
17813;DHT22;9030;50.792;8.320;2023-04-03T11:44:00;6.90;91.60
17813;DHT22;9030;50.792;8.320;2023-04-03T11:46:52;6.20;90.60
17813;DHT22;9030;50.792;8.320;2023-04-03T11:49:51;6.00;91.90
17813;DHT22;9030;50.792;8.320;2023-04-03T11:58:23;7.70;90.50
17813;DHT22;9030;50.792;8.320;2023-04-03T12:01:09;7.70;90.00
17813;DHT22;9030;50.792;8.320;2023-04-03T12:10:17;7.50;90.10
17813;DHT22;9030;50.792;8.320;2023-04-03T12:12:56;7.90;88.60
17813;DHT22;9030;50.792;8.320;2023-04-03T12:15:54;8.00;90.40
17813;DHT22;9030;50.792;8.320;2023-04-03T12:18:59;8.10;90.10
17813;DHT22;9030;50.792;8.320;2023-04-03T12:24:33;7.40;91.50
17813;DHT22;9030;50.792;8.320;2023-04-03T12:27:21;7.30;90.60
17813;DHT22;9030;50.792;8.320;2023-04-03T12:29:54;7.40;91.70
17813;DHT22;9030;50.792;8.320;2023-04-03T12:32:41;7.00;91.30
17813;DHT22;9030;50.792;8.320;2023-04-03T12:35:19;7.00;92.40
17813;DHT22;9030;50.792;8.320;2023-04-03T12:38:00;6.70;90.40
17813;DHT22;9030;50.792;8.320;2023-04-03T12:40:37;6.40;92.20
17813;DHT22;9030;50.792;8.320;2023-04-03T12:43:20;6.30;91.20
17813;DHT22;9030;50.792;8.320;2023-04-03T12:45:57;6.60;92.50
17813;DHT22;9030;50.792;8.320;2023-04-03T12:48:27;7.30;92.30
17813;DHT22;9030;50.792;8.320;2023-04-03T12:50:55;7.30;90.00
17813;DHT22;9030;50.792;8.320;2023-04-03T12:53:25;7.20;91.10
17813;DHT22;9030;50.792;8.320;2023-04-03T12:55:54;7.20;90.40
17813;DHT22;9030;50.792;8.320;2023-04-03T12:58:24;7.10;90.40
17813;DHT22;9030;50.792;8.320;2023-04-03T13:01:02;6.70;90.90
17813;DHT22;9030;50.792;8.320;2023-04-03T13:03:30;7.10;91.90
17813;DHT22;9030;50.792;8.320;2023-04-03T13:05:59;7.20;90.30
17813;DHT22;9030;50.792;8.320;2023-04-03T13:08:27;7.00;90.50
17813;DHT22;9030;50.792;8.320;2023-04-03T13:10:58;6.50;90.70
17813;DHT22;9030;50.792;8.320;2023-04-03T13:13:27;6.90;92.00
17813;DHT22;9030;50.792;8.320;2023-04-03T13:15:54;7.40;91.90
17813;DHT22;9030;50.792;8.320;2023-04-03T13:18:23;7.20;89.50
17813;DHT22;9030;50.792;8.320;2023-04-03T13:20:50;7.10;92.00
17813;DHT22;9030;50.792;8.320;2023-04-03T13:23:18;7.00;91.00
17813;DHT22;9030;50.792;8.320;2023-04-03T13:25:47;6.80;90.90
17813;DHT22;9030;50.792;8.320;2023-04-03T13:28:17;6.80;91.70
17813;DHT22;9030;50.792;8.320;2023-04-03T13:31:01;6.60;91.70
17813;DHT22;9030;50.792;8.320;2023-04-03T13:33:30;6.60;91.80
17813;DHT22;9030;50.792;8.320;2023-04-03T13:36:02;6.60;92.60
17813;DHT22;9030;50.792;8.320;2023-04-03T13:38:30;6.60;90.60
17813;DHT22;9030;50.792;8.320;2023-04-03T13:41:01;6.50;92.20
17813;DHT22;9030;50.792;8.320;2023-04-03T13:43:30;6.40;91.80
17813;DHT22;9030;50.792;8.320;2023-04-03T13:46:24;6.60;92.40
17813;DHT22;9030;50.792;8.320;2023-04-03T13:48:53;6.60;91.80
17813;DHT22;9030;50.792;8.320;2023-04-03T13:51:23;6.70;91.80
17813;DHT22;9030;50.792;8.320;2023-04-03T13:53:52;6.60;92.30
17813;DHT22;9030;50.792;8.320;2023-04-03T13:56:29;6.60;91.70
17813;DHT22;9030;50.792;8.320;2023-04-03T13:59:00;6.70;92.10
17813;DHT22;9030;50.792;8.320;2023-04-03T14:01:40;6.60;91.80
17813;DHT22;9030;50.792;8.320;2023-04-03T14:04:15;6.40;92.30
17813;DHT22;9030;50.792;8.320;2023-04-03T14:06:43;6.30;91.90
17813;DHT22;9030;50.792;8.320;2023-04-03T14:09:10;6.50;93.60
17813;DHT22;9030;50.792;8.320;2023-04-03T14:11:37;6.60;92.20
17813;DHT22;9030;50.792;8.320;2023-04-03T14:14:12;6.60;91.80
17813;DHT22;9030;50.792;8.320;2023-04-03T14:16:43;6.20;91.40
17813;DHT22;9030;50.792;8.320;2023-04-03T14:19:24;6.10;92.40
17813;DHT22;9030;50.792;8.320;2023-04-03T14:21:52;6.30;93.90
17813;DHT22;9030;50.792;8.320;2023-04-03T14:24:19;6.30;92.20
17813;DHT22;9030;50.792;8.320;2023-04-03T14:26:48;6.30;91.50
17813;DHT22;9030;50.792;8.320;2023-04-03T14:29:15;6.30;90.30
17813;DHT22;9030;50.792;8.320;2023-04-03T14:31:45;6.40;93.00
17813;DHT22;9030;50.792;8.320;2023-04-03T14:34:12;6.30;90.80
17813;DHT22;9030;50.792;8.320;2023-04-03T14:36:39;6.30;91.40
17813;DHT22;9030;50.792;8.320;2023-04-03T14:39:08;6.30;90.90
17813;DHT22;9030;50.792;8.320;2023-04-03T14:41:37;6.40;90.80
17813;DHT22;9030;50.792;8.320;2023-04-03T14:44:04;6.40;90.20
17813;DHT22;9030;50.792;8.320;2023-04-03T14:46:33;6.40;91.80
17813;DHT22;9030;50.792;8.320;2023-04-03T14:49:02;6.50;90.40
17813;DHT22;9030;50.792;8.320;2023-04-03T14:51:33;6.50;90.00
17813;DHT22;9030;50.792;8.320;2023-04-03T14:54:00;6.30;90.90
17813;DHT22;9030;50.792;8.320;2023-04-03T14:56:29;6.40;91.70
17813;DHT22;9030;50.792;8.320;2023-04-03T14:58:58;6.50;91.30
17813;DHT22;9030;50.792;8.320;2023-04-03T15:01:25;6.50;90.80
17813;DHT22;9030;50.792;8.320;2023-04-03T15:03:52;6.60;92.30
17813;DHT22;9030;50.792;8.320;2023-04-03T15:06:20;6.60;91.70
17813;DHT22;9030;50.792;8.320;2023-04-03T15:08:48;6.70;91.20
17813;DHT22;9030;50.792;8.320;2023-04-03T15:11:15;6.80;89.30
17813;DHT22;9030;50.792;8.320;2023-04-03T15:13:42;7.00;90.80
17813;DHT22;9030;50.792;8.320;2023-04-03T15:16:14;6.90;91.10
17813;DHT22;9030;50.792;8.320;2023-04-03T15:18:42;6.80;90.00
17813;DHT22;9030;50.792;8.320;2023-04-03T15:21:09;6.60;89.80
17813;DHT22;9030;50.792;8.320;2023-04-03T15:23:37;6.70;90.50
17813;DHT22;9030;50.792;8.320;2023-04-03T15:26:04;6.40;88.50
17813;DHT22;9030;50.792;8.320;2023-04-03T15:28:34;6.30;89.60
17813;DHT22;9030;50.792;8.320;2023-04-03T15:31:02;6.30;90.80
17813;DHT22;9030;50.792;8.320;2023-04-03T15:33:28;6.50;90.00
17813;DHT22;9030;50.792;8.320;2023-04-03T15:35:55;6.50;90.80
17813;DHT22;9030;50.792;8.320;2023-04-03T15:38:22;6.50;90.00
17813;DHT22;9030;50.792;8.320;2023-04-03T15:40:50;6.50;90.00
17813;DHT22;9030;50.792;8.320;2023-04-03T15:43:17;6.60;90.60
17813;DHT22;9030;50.792;8.320;2023-04-03T15:45:44;6.50;90.10
17813;DHT22;9030;50.792;8.320;2023-04-03T15:48:11;6.50;90.00
17813;DHT22;9030;50.792;8.320;2023-04-03T15:50:39;6.60;90.40
17813;DHT22;9030;50.792;8.320;2023-04-03T15:53:06;6.50;90.00
17813;DHT22;9030;50.792;8.320;2023-04-03T15:55:34;6.60;89.40
17813;DHT22;9030;50.792;8.320;2023-04-03T15:58:03;6.50;90.10
17813;DHT22;9030;50.792;8.320;2023-04-03T16:00:30;6.60;88.90
17813;DHT22;9030;50.792;8.320;2023-04-03T16:03:00;6.70;89.30
17813;DHT22;9030;50.792;8.320;2023-04-03T16:05:30;6.70;89.60
17813;DHT22;9030;50.792;8.320;2023-04-03T16:07:58;6.80;90.80
17813;DHT22;9030;50.792;8.320;2023-04-03T16:10:26;6.90;89.90
17813;DHT22;9030;50.792;8.320;2023-04-03T16:12:52;6.80;86.90
17813;DHT22;9030;50.792;8.320;2023-04-03T16:15:20;6.50;87.10
17813;DHT22;9030;50.792;8.320;2023-04-03T16:17:48;6.50;88.50
17813;DHT22;9030;50.792;8.320;2023-04-03T16:20:15;6.50;90.00
17813;DHT22;9030;50.792;8.320;2023-04-03T16:22:42;6.40;89.00
17813;DHT22;9030;50.792;8.320;2023-04-03T16:25:10;6.40;90.30
17813;DHT22;9030;50.792;8.320;2023-04-03T16:27:37;6.40;91.10
17813;DHT22;9030;50.792;8.320;2023-04-03T16:30:06;6.40;89.50
17813;DHT22;9030;50.792;8.320;2023-04-03T16:32:34;6.20;87.80
17813;DHT22;9030;50.792;8.320;2023-04-03T16:35:02;6.40;89.30